createdAt,value
2022-09-27T00:00:42.890Z,12.95
2022-09-27T00:03:13.357Z,12.96
2022-09-27T00:05:40.406Z,12.97
2022-09-27T00:08:07.697Z,12.95
2022-09-27T00:10:34.414Z,12.98
2022-09-27T00:13:01.069Z,12.95
2022-09-27T00:15:27.747Z,12.92
2022-09-27T00:17:54.923Z,12.90
2022-09-27T00:20:21.949Z,12.91
2022-09-27T00:22:50.188Z,12.86
2022-09-27T00:25:17.069Z,12.89
2022-09-27T00:27:43.943Z,12.89
2022-09-27T00:30:11.454Z,12.85
2022-09-27T00:32:38.178Z,12.91
2022-09-27T00:35:05.222Z,12.86
2022-09-27T00:37:32.192Z,12.88
2022-09-27T00:39:58.896Z,12.87
2022-09-27T00:42:25.616Z,12.89
2022-09-27T00:45:07.696Z,12.82
2022-09-27T00:47:41.299Z,12.84
2022-09-27T00:50:28.352Z,12.75
2022-09-27T00:53:06.555Z,12.79
2022-09-27T00:55:36.906Z,12.81
2022-09-27T00:58:05.058Z,12.85
2022-09-27T01:00:31.932Z,12.87
2022-09-27T01:02:58.790Z,12.87
2022-09-27T01:05:27.759Z,12.88
2022-09-27T01:07:56.580Z,12.82
2022-09-27T01:10:25.417Z,12.87
2022-09-27T01:13:07.224Z,12.84
2022-09-27T01:15:46.112Z,12.74
2022-09-27T01:18:29.141Z,12.77
2022-09-27T01:21:13.912Z,12.70
2022-09-27T01:23:46.465Z,12.84
2022-09-27T01:26:29.268Z,12.75
2022-09-27T01:28:59.161Z,12.82
2022-09-27T01:31:54.910Z,12.75
2022-09-27T01:34:44.676Z,12.78
2022-09-27T01:37:34.825Z,12.82
2022-09-27T01:40:18.347Z,12.70
2022-09-27T01:43:01.071Z,12.73
2022-09-27T01:45:39.124Z,12.74
2022-09-27T01:48:16.790Z,12.84
2022-09-27T01:51:15.020Z,12.68
2022-09-27T01:53:45.003Z,12.86
2022-09-27T01:56:48.322Z,12.82
2022-09-27T01:59:29.722Z,12.75
2022-09-27T02:02:14.395Z,12.80
2022-09-27T02:05:19.866Z,12.86
2022-09-27T02:07:53.775Z,12.88
2022-09-27T02:10:25.044Z,12.82
2022-09-27T02:13:03.805Z,12.82
2022-09-27T02:15:35.078Z,12.82
2022-09-27T02:18:24.413Z,12.81
2022-09-27T02:20:55.271Z,12.75
2022-09-27T02:24:00.747Z,12.68
2022-09-27T02:26:35.988Z,12.76
2022-09-27T02:29:02.851Z,12.75
2022-09-27T02:31:34.956Z,12.75
2022-09-27T02:34:34.242Z,12.64
2022-09-27T02:37:01.003Z,12.72
2022-09-27T02:39:28.149Z,12.72
2022-09-27T02:42:04.207Z,12.74
2022-09-27T02:44:31.156Z,12.73
2022-09-27T02:47:22.922Z,12.60
2022-09-27T02:49:52.929Z,12.70
2022-09-27T02:53:08.897Z,12.66
2022-09-27T02:55:44.105Z,12.72
2022-09-27T02:58:39.744Z,12.71
2022-09-27T03:01:36.021Z,12.66
2022-09-27T03:04:18.807Z,12.59
2022-09-27T03:06:47.323Z,12.72
2022-09-27T03:09:25.693Z,12.64
2022-09-27T03:11:53.217Z,12.73
2022-09-27T03:14:20.194Z,12.68
2022-09-27T03:16:59.982Z,12.73
2022-09-27T03:19:45.311Z,12.69
2022-09-27T03:22:40.962Z,12.69
2022-09-27T03:25:08.917Z,12.74
2022-09-27T03:27:36.403Z,12.75
2022-09-27T03:30:03.958Z,12.72
2022-09-27T03:32:31.194Z,12.70
2022-09-27T03:35:16.646Z,12.70
2022-09-27T03:37:43.362Z,12.66
2022-09-27T03:40:10.747Z,12.65
2022-09-27T03:42:38.495Z,12.67
2022-09-27T03:45:06.330Z,12.66
2022-09-27T03:47:33.038Z,12.65
2022-09-27T03:50:00.209Z,12.65
2022-09-27T03:52:27.262Z,12.67
2022-09-27T03:54:57.375Z,12.68
2022-09-27T03:57:26.769Z,12.62
2022-09-27T03:59:53.886Z,12.65
2022-09-27T04:02:43.483Z,12.57
2022-09-27T04:05:37.322Z,12.60
2022-09-27T04:08:08.155Z,12.57
2022-09-27T04:10:36.663Z,12.59
2022-09-27T04:13:04.135Z,12.62
2022-09-27T04:15:35.751Z,12.60
2022-09-27T04:18:21.370Z,12.61
2022-09-27T04:21:06.933Z,12.60
2022-09-27T04:23:36.376Z,12.58
2022-09-27T04:26:03.629Z,12.53
2022-09-27T04:29:03.115Z,12.55
2022-09-27T04:31:31.878Z,12.56
2022-09-27T04:34:10.690Z,12.54
2022-09-27T04:36:37.574Z,12.56
2022-09-27T04:39:31.110Z,12.54
2022-09-27T04:41:57.939Z,12.62
2022-09-27T04:44:24.715Z,12.60
2022-09-27T04:46:51.871Z,12.56
2022-09-27T04:49:18.787Z,12.52
2022-09-27T04:51:45.542Z,12.48
2022-09-27T04:54:12.187Z,12.43
2022-09-27T04:56:48.809Z,12.41
2022-09-27T04:59:15.903Z,12.42
2022-09-27T05:01:42.733Z,12.36
2022-09-27T05:04:09.615Z,12.37
2022-09-27T05:06:39.525Z,12.40
2022-09-27T05:09:15.966Z,12.41
2022-09-27T05:11:50.299Z,12.41
2022-09-27T05:14:16.994Z,12.42
2022-09-27T05:17:04.024Z,12.40
2022-09-27T05:19:47.538Z,12.40
2022-09-27T05:22:40.195Z,12.35
2022-09-27T05:25:08.206Z,12.38
2022-09-27T05:27:35.071Z,12.38
2022-09-27T05:30:01.981Z,12.37
2022-09-27T05:32:42.131Z,12.37
2022-09-27T05:35:24.101Z,12.34
2022-09-27T05:37:58.850Z,12.31
2022-09-27T05:40:40.874Z,12.34
2022-09-27T05:43:09.167Z,12.36
2022-09-27T05:45:35.915Z,12.38
2022-09-27T05:48:05.110Z,12.44
2022-09-27T05:50:36.378Z,12.42
2022-09-27T05:53:04.005Z,12.44
2022-09-27T05:55:30.798Z,12.46
2022-09-27T05:58:05.709Z,12.36
2022-09-27T06:00:44.034Z,12.43
2022-09-27T06:03:30.594Z,12.42
2022-09-27T06:06:15.968Z,12.43
2022-09-27T06:08:49.107Z,12.43
2022-09-27T06:11:18.751Z,12.45
2022-09-27T06:13:46.617Z,12.42
2022-09-27T06:16:13.511Z,12.38
2022-09-27T06:18:44.764Z,12.38
2022-09-27T06:21:12.622Z,12.38
2022-09-27T06:23:41.598Z,12.38
2022-09-27T06:26:14.375Z,12.32
2022-09-27T06:28:51.152Z,12.36
2022-09-27T06:31:17.954Z,12.39
2022-09-27T06:33:51.599Z,12.40
2022-09-27T06:36:18.442Z,12.41
2022-09-27T06:38:48.118Z,12.38
2022-09-27T06:41:23.631Z,12.39
2022-09-27T06:44:11.436Z,12.43
2022-09-27T06:46:44.029Z,12.42
2022-09-27T06:49:40.497Z,12.43
2022-09-27T06:52:07.234Z,12.47
2022-09-27T06:54:33.950Z,12.43
2022-09-27T06:57:02.605Z,12.45
2022-09-27T06:59:48.543Z,12.43
2022-09-27T07:02:33.789Z,12.15
2022-09-27T07:05:30.055Z,12.32
2022-09-27T07:08:12.698Z,12.36
2022-09-27T07:10:49.902Z,12.35
2022-09-27T07:13:17.238Z,12.32
2022-09-27T07:15:44.280Z,12.34
2022-09-27T07:18:14.183Z,12.31
2022-09-27T07:20:41.322Z,12.33
2022-09-27T07:23:09.186Z,12.35
2022-09-27T07:25:36.540Z,12.37
2022-09-27T07:28:08.117Z,12.32
2022-09-27T07:30:35.643Z,12.32
2022-09-27T07:33:04.371Z,12.34
2022-09-27T07:35:32.342Z,12.37
2022-09-27T07:37:59.622Z,12.36
2022-09-27T07:40:26.732Z,12.44
2022-09-27T07:42:57.686Z,12.44
2022-09-27T07:45:25.696Z,12.43
2022-09-27T07:48:10.691Z,12.45
2022-09-27T07:50:55.768Z,12.43
2022-09-27T07:53:56.974Z,12.40
2022-09-27T07:56:41.882Z,12.41
2022-09-27T07:59:11.810Z,12.44
2022-09-27T08:01:39.567Z,12.45
2022-09-27T08:04:06.297Z,12.46
2022-09-27T08:06:33.297Z,12.46
2022-09-27T08:09:00.247Z,12.47
2022-09-27T08:11:28.146Z,12.44
2022-09-27T08:13:56.982Z,12.47
2022-09-27T08:16:28.679Z,12.49
2022-09-27T08:19:15.015Z,12.52
2022-09-27T08:22:04.580Z,12.54
2022-09-27T08:24:38.307Z,12.58
2022-09-27T08:27:11.919Z,12.58
2022-09-27T08:29:53.313Z,12.56
2022-09-27T08:32:23.258Z,12.60
2022-09-27T08:34:50.958Z,12.63
2022-09-27T08:37:17.745Z,12.68
2022-09-27T08:39:47.805Z,12.70
2022-09-27T08:42:39.803Z,12.69
2022-09-27T08:45:26.127Z,12.66
2022-09-27T08:47:56.710Z,12.77
2022-09-27T08:50:39.746Z,12.74
2022-09-27T08:53:14.099Z,12.80
2022-09-27T08:55:49.441Z,12.83
2022-09-27T08:58:30.311Z,12.84
2022-09-27T09:01:04.221Z,12.84
2022-09-27T09:03:44.407Z,12.81
2022-09-27T09:06:28.905Z,12.83
2022-09-27T09:09:04.881Z,12.87
2022-09-27T09:12:03.526Z,12.89
2022-09-27T09:14:38.020Z,12.81
2022-09-27T09:17:23.873Z,12.77
2022-09-27T09:20:28.015Z,12.77
2022-09-27T09:23:13.483Z,12.79
2022-09-27T09:26:11.130Z,12.80
2022-09-27T09:29:08.961Z,12.79
2022-09-27T09:31:38.655Z,12.89
2022-09-27T09:34:15.845Z,12.82
2022-09-27T09:36:57.198Z,12.82
2022-09-27T09:39:28.174Z,12.91
2022-09-27T09:42:03.270Z,12.93
2022-09-27T09:44:54.141Z,12.97
2022-09-27T09:47:31.941Z,13.07
2022-09-27T09:50:01.683Z,13.15
2022-09-27T09:52:40.783Z,13.15
2022-09-27T09:55:18.607Z,13.19
2022-09-27T09:58:19.649Z,13.11
2022-09-27T10:00:51.530Z,13.16
2022-09-27T10:03:19.571Z,13.20
2022-09-27T10:05:46.632Z,13.21
2022-09-27T10:08:19.150Z,13.19
2022-09-27T10:10:49.034Z,13.19
2022-09-27T10:13:38.949Z,13.18
2022-09-27T10:16:09.117Z,13.21
2022-09-27T10:18:39.193Z,13.22
2022-09-27T10:21:29.028Z,13.11
2022-09-27T10:24:17.789Z,13.06
2022-09-27T10:27:05.720Z,13.07
2022-09-27T10:29:38.201Z,12.99
2022-09-27T10:32:36.489Z,12.82
2022-09-27T10:35:29.032Z,12.82
2022-09-27T10:38:23.998Z,12.65
2022-09-27T10:40:59.302Z,12.71
2022-09-27T10:43:32.979Z,12.66
2022-09-27T10:46:33.491Z,12.57
2022-09-27T10:49:24.933Z,12.57
2022-09-27T10:51:58.040Z,12.54
2022-09-27T10:54:28.974Z,12.52
2022-09-27T10:57:14.121Z,12.37
2022-09-27T10:59:43.400Z,12.32
2022-09-27T11:02:41.572Z,12.26
2022-09-27T11:05:16.171Z,12.24
2022-09-27T11:07:54.539Z,12.18
2022-09-27T11:10:37.192Z,12.26
2022-09-27T11:13:15.687Z,12.25
2022-09-27T11:16:12.663Z,12.29
2022-09-27T11:18:57.675Z,12.38
2022-09-27T11:22:01.643Z,12.25
2022-09-27T11:24:32.567Z,12.41
2022-09-27T11:27:10.097Z,12.39
2022-09-27T11:29:47.050Z,12.43
2022-09-27T11:32:57.870Z,12.35
2022-09-27T11:35:38.900Z,12.42
2022-09-27T11:38:51.124Z,12.30
2022-09-27T11:41:21.355Z,12.46
2022-09-27T11:44:12.370Z,12.48
2022-09-27T11:46:42.008Z,12.53
2022-09-27T11:49:32.620Z,12.59
2022-09-27T11:52:30.226Z,12.52
2022-09-27T11:55:12.041Z,12.60
2022-09-27T11:57:49.822Z,12.72
2022-09-27T12:00:17.899Z,12.90
2022-09-27T12:03:13.289Z,12.93
2022-09-27T12:06:13.420Z,12.96
2022-09-27T12:09:03.537Z,12.98
2022-09-27T12:11:39.169Z,13.08
2022-09-27T12:14:27.054Z,13.00
2022-09-27T12:16:56.156Z,13.10
2022-09-27T12:19:29.023Z,13.08
2022-09-27T12:22:07.538Z,13.07
2022-09-27T12:24:39.138Z,13.09
2022-09-27T12:27:53.889Z,12.98
2022-09-27T12:30:22.175Z,13.06
2022-09-27T12:32:54.630Z,13.04
2022-09-27T12:35:44.341Z,12.95
2022-09-27T12:38:22.412Z,12.94
2022-09-27T12:40:52.277Z,13.02
2022-09-27T12:43:31.736Z,13.06
2022-09-27T12:46:40.280Z,13.05
2022-09-27T12:49:30.879Z,13.19
2022-09-27T12:52:01.944Z,13.25
2022-09-27T12:55:11.428Z,13.27
2022-09-27T12:57:50.686Z,13.39
2022-09-27T13:00:28.992Z,13.47
2022-09-27T13:03:41.123Z,13.49
2022-09-27T13:06:13.618Z,13.57
2022-09-27T13:09:00.146Z,13.54
2022-09-27T13:11:45.317Z,13.61
2022-09-27T13:14:22.147Z,13.64
2022-09-27T13:16:49.325Z,13.72
2022-09-27T13:19:36.090Z,13.64
2022-09-27T13:22:05.057Z,13.73
2022-09-27T13:24:52.344Z,13.67
2022-09-27T13:27:40.095Z,13.65
2022-09-27T13:30:08.545Z,13.65
2022-09-27T13:32:37.025Z,13.65
2022-09-27T13:35:24.190Z,13.54
2022-09-27T13:37:59.438Z,13.60
2022-09-27T13:40:42.878Z,13.54
2022-09-27T13:43:13.054Z,13.55
2022-09-27T13:45:55.150Z,13.56
2022-09-27T13:48:30.254Z,13.56
2022-09-27T13:51:11.511Z,13.62
2022-09-27T13:53:40.241Z,13.67
2022-09-27T13:56:36.131Z,13.54
2022-09-27T13:59:08.494Z,13.57
2022-09-27T14:01:51.847Z,13.49
2022-09-27T14:04:49.038Z,13.37
2022-09-27T14:07:18.717Z,13.48
2022-09-27T14:09:48.387Z,13.43
2022-09-27T14:12:24.650Z,13.41
2022-09-27T14:14:54.663Z,13.40
2022-09-27T14:17:22.391Z,13.43
2022-09-27T14:19:50.587Z,13.46
2022-09-27T14:22:20.544Z,13.55
2022-09-27T14:24:53.973Z,13.61
2022-09-27T14:27:28.273Z,13.64
2022-09-27T14:30:18.861Z,13.59
2022-09-27T14:32:55.593Z,13.64
2022-09-27T14:36:06.794Z,13.52
2022-09-27T14:38:39.061Z,13.52
2022-09-27T14:41:20.190Z,13.48
2022-09-27T14:43:49.363Z,13.42
2022-09-27T14:46:30.328Z,13.32
2022-09-27T14:48:57.874Z,13.39
2022-09-27T14:51:30.419Z,13.31
2022-09-27T14:54:01.392Z,13.30
2022-09-27T14:56:32.188Z,13.28
2022-09-27T14:59:09.330Z,13.24
2022-09-27T15:01:38.157Z,13.24
2022-09-27T15:04:07.098Z,13.20
2022-09-27T15:06:36.583Z,13.20
2022-09-27T15:09:03.974Z,13.19
2022-09-27T15:11:33.275Z,13.20
2022-09-27T15:14:01.795Z,13.17
2022-09-27T15:16:28.660Z,13.17
2022-09-27T15:19:00.245Z,13.11
2022-09-27T15:21:32.673Z,13.10
2022-09-27T15:23:59.330Z,13.09
2022-09-27T15:26:35.854Z,13.09
2022-09-27T15:29:03.383Z,13.08
2022-09-27T15:31:35.127Z,13.01
2022-09-27T15:34:02.778Z,13.06
2022-09-27T15:36:53.834Z,12.91
2022-09-27T15:39:27.478Z,12.90
2022-09-27T15:42:06.161Z,12.86
2022-09-27T15:44:46.465Z,12.80
2022-09-27T15:47:51.238Z,12.79
2022-09-27T15:50:20.765Z,12.84
2022-09-27T15:52:50.718Z,12.82
2022-09-27T15:55:27.719Z,12.77
2022-09-27T15:57:59.735Z,12.79
2022-09-27T16:00:26.981Z,12.77
2022-09-27T16:02:54.021Z,12.75
2022-09-27T16:05:23.635Z,12.75
2022-09-27T16:07:51.142Z,12.76
2022-09-27T16:10:27.633Z,12.65
2022-09-27T16:12:54.442Z,12.70
2022-09-27T16:15:21.675Z,12.59
2022-09-27T16:17:49.135Z,12.57
2022-09-27T16:20:24.906Z,12.51
2022-09-27T16:22:52.668Z,12.53
2022-09-27T16:25:20.631Z,12.53
2022-09-27T16:27:47.908Z,12.50
2022-09-27T16:30:15.160Z,12.48
2022-09-27T16:32:45.493Z,12.43
2022-09-27T16:35:13.310Z,12.44
2022-09-27T16:37:40.582Z,12.43
2022-09-27T16:40:09.108Z,12.44
2022-09-27T16:42:36.921Z,12.43
2022-09-27T16:45:09.990Z,12.50
2022-09-27T16:47:39.175Z,12.51
2022-09-27T16:50:25.083Z,12.49
2022-09-27T16:52:52.408Z,12.48
2022-09-27T16:55:20.930Z,12.49
2022-09-27T16:57:48.369Z,12.49
2022-09-27T17:00:16.003Z,12.44
2022-09-27T17:02:47.091Z,12.46
2022-09-27T17:05:15.496Z,12.43
2022-09-27T17:07:42.408Z,12.42
2022-09-27T17:10:09.246Z,12.37
2022-09-27T17:12:35.999Z,12.34
2022-09-27T17:15:02.653Z,12.31
2022-09-27T17:17:29.445Z,12.29
2022-09-27T17:19:56.234Z,12.29
2022-09-27T17:22:22.921Z,12.23
2022-09-27T17:24:49.699Z,12.23
2022-09-27T17:27:16.709Z,12.18
2022-09-27T17:29:43.442Z,12.13
2022-09-27T17:32:10.146Z,12.08
2022-09-27T17:34:36.854Z,12.07
2022-09-27T17:37:04.693Z,12.06
2022-09-27T17:39:31.319Z,12.00
2022-09-27T17:41:59.714Z,12.00
2022-09-27T17:44:27.213Z,11.97
2022-09-27T17:47:12.822Z,11.96
2022-09-27T17:49:58.167Z,11.98
2022-09-27T17:52:26.870Z,11.94
2022-09-27T17:54:55.907Z,11.94
2022-09-27T17:57:22.881Z,11.92
2022-09-27T17:59:49.564Z,11.92
2022-09-27T18:02:16.566Z,11.90
2022-09-27T18:04:43.400Z,11.87
2022-09-27T18:07:12.312Z,11.86
2022-09-27T18:09:39.182Z,11.77
2022-09-27T18:12:06.073Z,11.76
2022-09-27T18:14:33.478Z,11.72
2022-09-27T18:17:00.448Z,11.72
2022-09-27T18:19:27.179Z,11.74
2022-09-27T18:21:53.944Z,11.69
2022-09-27T18:24:20.763Z,11.70
2022-09-27T18:26:49.195Z,11.66
2022-09-27T18:29:20.727Z,11.65
2022-09-27T18:31:49.073Z,11.66
2022-09-27T18:34:17.458Z,11.64
2022-09-27T18:36:44.626Z,11.67
2022-09-27T18:39:18.232Z,11.71
2022-09-27T18:41:45.711Z,11.68
2022-09-27T18:44:14.446Z,11.68
2022-09-27T18:46:41.683Z,11.68
2022-09-27T18:49:10.989Z,11.61
2022-09-27T18:51:41.808Z,11.57
2022-09-27T18:54:13.603Z,11.48
2022-09-27T18:56:41.094Z,11.49
2022-09-27T18:59:09.153Z,11.47
2022-09-27T19:01:41.484Z,11.37
2022-09-27T19:04:09.520Z,11.34
2022-09-27T19:06:37.131Z,11.34
2022-09-27T19:09:04.663Z,11.36
2022-09-27T19:11:31.644Z,11.36
2022-09-27T19:13:58.662Z,11.38
2022-09-27T19:16:27.067Z,11.35
2022-09-27T19:18:54.158Z,11.40
2022-09-27T19:21:23.787Z,11.33
2022-09-27T19:23:51.328Z,11.34
2022-09-27T19:26:21.642Z,11.35
2022-09-27T19:28:49.727Z,11.29
2022-09-27T19:31:19.035Z,11.33
2022-09-27T19:33:45.837Z,11.33
2022-09-27T19:36:16.251Z,11.29
2022-09-27T19:38:43.351Z,11.36
2022-09-27T19:41:11.676Z,11.34
2022-09-27T19:43:38.691Z,11.35
2022-09-27T19:46:11.380Z,11.39
2022-09-27T19:48:38.410Z,11.36
2022-09-27T19:51:06.129Z,11.39
2022-09-27T19:53:33.979Z,11.41
2022-09-27T19:56:02.056Z,11.48
2022-09-27T19:58:30.521Z,11.46
2022-09-27T20:01:08.569Z,11.37
2022-09-27T20:03:37.657Z,11.45
2022-09-27T20:06:06.281Z,11.48
2022-09-27T20:08:33.171Z,11.50
2022-09-27T20:11:06.179Z,11.50
2022-09-27T20:13:34.130Z,11.48
2022-09-27T20:16:08.764Z,11.42
2022-09-27T20:18:39.798Z,11.47
2022-09-27T20:21:06.710Z,11.48
2022-09-27T20:23:34.219Z,11.45
2022-09-27T20:26:09.342Z,11.38
2022-09-27T20:28:43.811Z,11.36
2022-09-27T20:31:12.115Z,11.38
2022-09-27T20:33:41.780Z,11.36
2022-09-27T20:36:36.333Z,11.21
2022-09-27T20:39:05.424Z,11.22
2022-09-27T20:41:37.117Z,11.19
2022-09-27T20:44:06.617Z,11.17
2022-09-27T20:46:34.528Z,11.16
2022-09-27T20:49:05.507Z,11.04
2022-09-27T20:51:33.219Z,11.07
2022-09-27T20:54:00.821Z,11.06
2022-09-27T20:56:35.713Z,10.93
2022-09-27T20:59:24.247Z,11.05
2022-09-27T21:01:51.851Z,11.08
2022-09-27T21:04:19.865Z,11.09
2022-09-27T21:06:46.613Z,11.10
2022-09-27T21:09:19.793Z,11.11
2022-09-27T21:11:47.668Z,11.06
2022-09-27T21:14:14.466Z,11.09
2022-09-27T21:16:41.279Z,11.10
2022-09-27T21:19:09.651Z,11.10
2022-09-27T21:21:36.411Z,11.13
2022-09-27T21:24:03.150Z,11.19
2022-09-27T21:26:31.583Z,11.20
2022-09-27T21:29:00.146Z,11.18
2022-09-27T21:31:34.304Z,11.17
2022-09-27T21:34:03.284Z,11.19
2022-09-27T21:36:32.116Z,11.19
2022-09-27T21:38:58.831Z,11.22
2022-09-27T21:41:26.206Z,11.25
2022-09-27T21:43:53.521Z,11.25
2022-09-27T21:46:25.512Z,11.19
2022-09-27T21:48:55.670Z,11.22
2022-09-27T21:51:22.368Z,11.24
2022-09-27T21:53:54.300Z,11.17
2022-09-27T21:56:22.355Z,11.20
2022-09-27T21:58:49.617Z,11.20
2022-09-27T22:01:21.982Z,11.17
2022-09-27T22:03:49.876Z,11.24
2022-09-27T22:06:19.231Z,11.22
2022-09-27T22:08:46.948Z,11.21
2022-09-27T22:11:15.827Z,11.25
2022-09-27T22:13:42.593Z,11.25
2022-09-27T22:16:12.169Z,11.19
2022-09-27T22:18:39.433Z,11.16
2022-09-27T22:21:11.837Z,11.15
2022-09-27T22:23:38.801Z,11.18
2022-09-27T22:26:12.794Z,11.10
2022-09-27T22:28:40.211Z,11.19
2022-09-27T22:31:08.405Z,11.19
2022-09-27T22:33:35.258Z,11.19
2022-09-27T22:36:02.165Z,11.20
2022-09-27T22:38:30.505Z,11.17
2022-09-27T22:40:59.620Z,11.19
2022-09-27T22:43:27.017Z,11.17
2022-09-27T22:45:53.697Z,11.18
2022-09-27T22:48:20.348Z,11.18
2022-09-27T22:50:47.097Z,11.19
2022-09-27T22:53:13.898Z,11.20
2022-09-27T22:55:41.079Z,11.18
2022-09-27T22:58:07.786Z,11.18
2022-09-27T23:00:34.819Z,11.14
2022-09-27T23:03:01.665Z,11.12
2022-09-27T23:05:28.364Z,11.15
2022-09-27T23:07:55.129Z,11.12
2022-09-27T23:10:23.337Z,11.11
2022-09-27T23:12:53.742Z,11.04
2022-09-27T23:15:20.541Z,11.11
2022-09-27T23:17:51.224Z,11.06
2022-09-27T23:20:18.472Z,11.12
2022-09-27T23:22:45.448Z,11.07
2022-09-27T23:25:12.604Z,11.09
2022-09-27T23:27:42.013Z,11.11
2022-09-27T23:30:09.811Z,11.10
2022-09-27T23:32:36.927Z,11.09
2022-09-27T23:35:04.146Z,11.06
2022-09-27T23:37:30.818Z,11.08
2022-09-27T23:39:57.502Z,11.08
2022-09-27T23:42:24.238Z,11.07
2022-09-27T23:44:52.590Z,11.05
2022-09-27T23:47:19.290Z,11.05
2022-09-27T23:49:46.091Z,11.04
2022-09-27T23:52:12.865Z,11.04
2022-09-27T23:54:39.571Z,11.07
2022-09-27T23:57:06.260Z,11.07
2022-09-27T23:59:32.992Z,11.08
